• Join FlightAware (Why Join?)
  • Login
  • US Flag 
04:10AM EDT


 

Airport Tracker/Info


-or-


 

Live Flight TrackerFlight Track Log ✈ EJA904 ✈ 16-Sep-2013 ✈ KAOC - KSJC

Flight Track Log - Related Links

Times and Time Zones

All times are in EDT time to prevent confusion due to time zone crossing. See the EJA904 flight status page for this flight to view local times or setup timezone preferences in your user account.

Time Position Orientation Groundspeed Altitude Reporting Facility
EDT Latitude Longitude Course Direction KTS MPH feet Rate Location/Type
07:33PM 43.1424 -114.0626 228° Southwest  Level Estimated
07:33PM 43.4544 -113.3464 171° South 266 306 11,400  Level Salt Lake Center
07:34PM 43.0650 -114.1829 225° Southwest  Level Estimated
07:34PM 43.3536 -113.2939 159° South 323 372 13,800  Level Salt Lake Center
07:35PM 42.9876 -114.3029 224° Southwest  Level Estimated
07:35PM 43.2797 -113.2025 138° Southeast 370 426 15,800  Level Salt Lake Center
07:36PM 42.8864 -114.3831 210° Southwest  Level FlightAware Approximate
07:36PM 43.1806 -113.2694 206° Southwest 359 413 17,800  Level Salt Lake Center
07:37PM 42.7850 -114.4629 210° Southwest  Level FlightAware Approximate
07:37PM 43.1050 -113.3550 220° Southwest 365 420 19,500  Level Salt Lake Center
07:38PM 43.0281 -113.4475 221° Southwest 378 435 21,200 1,680 Climbing Salt Lake Center
07:39PM 42.9356 -113.5536 220° Southwest 388 447 23,000 1,620 Climbing Salt Lake Center
07:40PM 42.8550 -113.6472 220° Southwest 395 455 24,600 1,680 Climbing Salt Lake Center
07:41PM 42.7594 -113.7569 220° Southwest 401 461 26,500 1,680 Climbing Salt Lake Center
07:42PM 42.6678 -113.8619 220° Southwest 408 470 28,100 1,500 Climbing Salt Lake Center
07:43PM 42.5758 -113.9644 219° Southwest 423 487 29,600 1,440 Climbing Salt Lake Center
07:44PM 42.4861 -114.0658 220° Southwest 422 486 31,100 1,440 Climbing Salt Lake Center
07:45PM 42.3944 -114.1692 220° Southwest 428 493 32,600 1,440 Climbing Salt Lake Center
07:46PM 42.3006 -114.2731 219° Southwest 436 502 34,100 1,560 Climbing Salt Lake Center
07:47PM 42.1861 -114.3989 219° Southwest 443 510 35,900 1,560 Climbing Salt Lake Center
07:48PM 42.0900 -114.5053 219° Southwest 447 514 37,400 1,440 Climbing Salt Lake Center
07:49PM 41.9897 -114.6178 220° Southwest 454 522 38,900 1,200 Climbing Salt Lake Center
07:50PM 41.8967 -114.7181 219° Southwest 449 517 40,000 480 Climbing Salt Lake Center
07:51PM 41.7861 -114.8381 219° Southwest 456 525 40,000  Level Salt Lake Center
07:52PM 41.6886 -114.9433 219° Southwest 466 536 40,000  Level Salt Lake Center
07:53PM 41.5811 -115.0747 222° Southwest 467 537 40,000  Level Salt Lake Center
07:55PM 41.5256 -115.2256 244° Southwest 471 542 40,000  Level Salt Lake Center
07:56PM 41.4544 -115.3917 240° Southwest 464 534 40,000  Level Salt Lake Center
07:57PM 41.3942 -115.5353 241° Southwest 464 534 40,000  Level Salt Lake Center
07:58PM 41.3339 -115.6772 241° Southwest 462 532 40,000  Level Salt Lake Center
07:59PM 41.2636 -115.8439 241° Southwest 462 532 40,000  Level Salt Lake Center
08:00PM 41.2039 -115.9858 241° Southwest 462 532 40,000  Level Salt Lake Center
08:01PM 41.1306 -116.1506 239° Southwest 463 533 40,000  Level Salt Lake Center
08:02PM 41.0717 -116.2933 241° Southwest 463 533 40,000  Level Salt Lake Center
08:03PM 41.0011 -116.4578 240° Southwest 462 532 40,000  Level Salt Lake Center
08:04PM 40.9378 -116.5986 239° Southwest 464 534 40,000  Level Salt Lake Center
08:05PM 40.8667 -116.7628 240° Southwest 464 534 40,000  Level Salt Lake Center
08:06PM 40.8047 -116.9033 240° Southwest 464 534 40,000  Level Salt Lake Center
08:07PM 40.7317 -117.0664 239° Southwest 466 536 40,000  Level Salt Lake Center
08:08PM 40.6703 -117.2053 240° Southwest 464 534 40,000  Level Salt Lake Center
08:09PM 40.5978 -117.3689 240° Southwest 466 536 40,000  Level Salt Lake Center
08:10PM 40.5297 -117.5042 237° Southwest 467 537 40,000  Level Salt Lake Center
08:11PM 40.4139 -117.6161 216° Southwest 464 534 40,000  Level Salt Lake Center
08:12PM 40.3133 -117.7089 215° Southwest 463 533 40,000  Level Salt Lake Center
08:13PM 40.1936 -117.8167 215° Southwest 467 537 40,000  Level Salt Lake Center
08:14PM 40.1047 -117.9000 216° Southwest 467 537 40,000  Level Oakland Center
08:15PM 39.9775 -118.0156 215° Southwest 464 534 40,000  Level Oakland Center
08:16PM 39.8717 -118.1106 215° Southwest 462 532 40,000  Level Oakland Center
08:17PM 39.7656 -118.2067 215° Southwest 464 534 40,000  Level Oakland Center
08:18PM 39.6606 -118.3011 215° Southwest 460 529 40,000  Level Oakland Center
08:19PM 39.5542 -118.3964 215° Southwest 460 529 40,000  Level Oakland Center
08:20PM 39.4408 -118.4967 214° Southwest 461 531 40,000 -540 Level Oakland Center
08:21PM 39.3347 -118.5883 214° Southwest 459 528 39,000 -1,260 Descending Oakland Center
08:22PM 39.2303 -118.6825 215° Southwest 459 528 37,500 -1,500 Descending Oakland Center
08:23PM 39.1231 -118.7758 214° Southwest 462 532 36,000 -1,440 Descending Oakland Center
08:24PM 39.0169 -118.8700 215° Southwest 461 531 34,600 -1,440 Descending Oakland Center
08:25PM 38.9119 -118.9631 215° Southwest 459 528 33,100 -1,320 Descending Oakland Center
08:26PM 38.8053 -119.0556 214° Southwest 460 529 32,000 -540 Descending Oakland Center
08:27PM 38.6969 -119.1486 214° Southwest 468 539 32,000  Level Oakland Center
08:28PM 38.5903 -119.2431 215° Southwest 465 535 32,000  Level Oakland Center
08:29PM 38.4597 -119.3533 213° Southwest 468 539 32,000  Level Oakland Center
08:30PM 38.3519 -119.4467 214° Southwest 468 539 32,000  Level Oakland Center
08:31PM 38.2597 -119.5269 214° Southwest 470 541 32,000  Level Oakland Center
08:33PM 38.1278 -119.6383 214° Southwest 472 543 32,000 -300 Level Oakland Center
08:34PM 38.0194 -119.7300 214° Southwest 470 541 31,400 -1,320 Descending Oakland Center
08:35PM 37.9097 -119.8222 214° Southwest 471 542 29,400 -2,040 Descending Oakland Center
08:36PM 37.8028 -119.9147 214° Southwest 468 539 27,300 -2,100 Descending Oakland Center
08:37PM 37.6894 -120.0089 213° Southwest 463 533 25,200 -1,920 Descending Oakland Center
08:38PM 37.5911 -120.0917 214° Southwest 451 519 23,400 -1,860 Descending Oakland Center
08:39PM 37.4892 -120.1767 213° Southwest 442 509 21,500 -1,680 Descending Oakland Center
08:40PM 37.3881 -120.2606 213° Southwest 435 501 20,000 -780 Descending Oakland Center
08:41PM 37.2886 -120.3436 214° Southwest 431 496 20,000 -1,620 Level Oakland Center
08:43PM 37.1813 -120.5343 254° West  Level FlightAware Approximate
08:43PM 37.1758 -120.5961 254° West 435 501 15,100  Level Oakland Center
08:45PM 37.1167 -120.8833 256° West 399 459 11,000 -1,440 Descending Northern Cal TRACON
08:46PM 37.0833 -121.0167 253° West 398 458 10,900 -300 Descending Northern Cal TRACON
08:47PM 37.0022 -121.0961 218° Southwest 355 409 10,400 -960 Descending Oakland Center
08:48PM 36.9411 -121.1608 220° Southwest 317 365 8,900 -1,260 Descending Oakland Center
08:49PM 36.9217 -121.2525 255° West 277 319 7,900 -480 Descending Oakland Center
08:50PM 36.9289 -121.3467 276° West 293 337 8,000  Climbing Oakland Center
08:51PM 36.9731 -121.4278 304° West 285 328 8,000  Level Oakland Center
08:52PM 37.0136 -121.5128 301° West 284 327 8,000 -420 Level Oakland Center
08:53PM 37.0544 -121.5931 303° West 277 319 7,200 -1,140 Descending Oakland Center
08:54PM 37.1222 -121.6675 319° Northwest 272 313 5,800 -1,200 Descending Oakland Center
08:55PM 37.1667 -121.7167 319° Northwest 262 302 5,000 -1,260 Descending Northern Cal TRACON
08:56PM 37.2167 -121.7833 313° West 249 287 3,500 -1,140 Descending Northern Cal TRACON
08:57PM 37.2667 -121.8167 332° Northwest 160 184 2,800 -780 Descending Northern Cal TRACON
08:58PM 37.2833 -121.8500 302° West 127 146 2,000 -720 Descending Northern Cal TRACON
08:59PM 37.3167 -121.8833 322° Northwest 131 151 1,400 -840 Descending Northern Cal TRACON
09:00PM 37.3500 -121.9000 338° Northwest 126 145 400 -1,020 Descending Northern Cal TRACON
09:02PM 37.3500 -121.9167 North  Level FlightAware Approximate
09:09PM 37.3627 -121.9291 North  Level Estimated